sensor_id;sensor_type;location;lat;lon;timestamp;temperature;humidity
22145;DHT22;11238;48.730;11.566;2023-08-12T00:00:02;18.60;99.90
22145;DHT22;11238;48.730;11.566;2023-08-12T00:02:46;18.60;99.90
22145;DHT22;11238;48.730;11.566;2023-08-12T00:05:12;18.50;99.90
22145;DHT22;11238;48.730;11.566;2023-08-12T00:07:40;18.50;99.90
22145;DHT22;11238;48.730;11.566;2023-08-12T00:10:11;18.50;99.90
22145;DHT22;11238;48.730;11.566;2023-08-12T00:12:37;18.50;99.90
22145;DHT22;11238;48.730;11.566;2023-08-12T00:15:04;18.30;99.90
22145;DHT22;11238;48.730;11.566;2023-08-12T00:17:32;18.30;99.90
22145;DHT22;11238;48.730;11.566;2023-08-12T00:19:58;18.30;99.90
22145;DHT22;11238;48.730;11.566;2023-08-12T00:22:24;18.20;99.90
22145;DHT22;11238;48.730;11.566;2023-08-12T00:24:51;18.20;99.90
22145;DHT22;11238;48.730;11.566;2023-08-12T00:27:18;18.20;99.90
22145;DHT22;11238;48.730;11.566;2023-08-12T00:29:43;18.20;99.90
22145;DHT22;11238;48.730;11.566;2023-08-12T00:32:10;18.20;99.90
22145;DHT22;11238;48.730;11.566;2023-08-12T00:34:36;18.10;99.90
22145;DHT22;11238;48.730;11.566;2023-08-12T00:37:04;18.10;99.90
22145;DHT22;11238;48.730;11.566;2023-08-12T00:39:29;18.10;99.90
22145;DHT22;11238;48.730;11.566;2023-08-12T00:41:55;18.10;99.90
22145;DHT22;11238;48.730;11.566;2023-08-12T00:44:21;18.00;99.90
22145;DHT22;11238;48.730;11.566;2023-08-12T00:46:48;18.00;99.90
22145;DHT22;11238;48.730;11.566;2023-08-12T00:49:14;18.00;99.90
22145;DHT22;11238;48.730;11.566;2023-08-12T00:51:42;18.00;99.90
22145;DHT22;11238;48.730;11.566;2023-08-12T00:54:13;18.00;99.90
22145;DHT22;11238;48.730;11.566;2023-08-12T00:56:41;17.90;99.90
22145;DHT22;11238;48.730;11.566;2023-08-12T00:59:07;17.90;99.90
22145;DHT22;11238;48.730;11.566;2023-08-12T01:01:35;17.90;99.90
22145;DHT22;11238;48.730;11.566;2023-08-12T01:04:04;17.90;99.90
22145;DHT22;11238;48.730;11.566;2023-08-12T01:06:30;17.80;99.90
22145;DHT22;11238;48.730;11.566;2023-08-12T01:08:56;17.80;99.90
22145;DHT22;11238;48.730;11.566;2023-08-12T01:13:58;17.80;99.90
22145;DHT22;11238;48.730;11.566;2023-08-12T01:16:33;17.80;99.90
22145;DHT22;11238;48.730;11.566;2023-08-12T01:19:05;17.70;99.90
22145;DHT22;11238;48.730;11.566;2023-08-12T01:21:33;17.70;99.90
22145;DHT22;11238;48.730;11.566;2023-08-12T01:24:02;17.80;99.90
22145;DHT22;11238;48.730;11.566;2023-08-12T01:26:29;17.70;99.90
22145;DHT22;11238;48.730;11.566;2023-08-12T01:28:54;17.60;99.90
22145;DHT22;11238;48.730;11.566;2023-08-12T01:31:34;17.60;99.90
22145;DHT22;11238;48.730;11.566;2023-08-12T01:34:19;17.60;99.90
22145;DHT22;11238;48.730;11.566;2023-08-12T01:36:55;17.60;99.90
22145;DHT22;11238;48.730;11.566;2023-08-12T01:39:23;17.50;99.90
22145;DHT22;11238;48.730;11.566;2023-08-12T01:41:52;17.40;99.90
22145;DHT22;11238;48.730;11.566;2023-08-12T01:44:19;17.40;99.90
22145;DHT22;11238;48.730;11.566;2023-08-12T01:46:46;17.40;99.90
22145;DHT22;11238;48.730;11.566;2023-08-12T01:49:12;17.40;99.90
22145;DHT22;11238;48.730;11.566;2023-08-12T01:51:37;17.40;99.90
22145;DHT22;11238;48.730;11.566;2023-08-12T01:54:04;17.40;99.90
22145;DHT22;11238;48.730;11.566;2023-08-12T01:56:30;17.30;99.90
22145;DHT22;11238;48.730;11.566;2023-08-12T01:58:55;17.40;99.90
22145;DHT22;11238;48.730;11.566;2023-08-12T02:01:21;17.40;99.90
22145;DHT22;11238;48.730;11.566;2023-08-12T02:03:47;17.30;99.90
22145;DHT22;11238;48.730;11.566;2023-08-12T02:06:12;17.30;99.90
22145;DHT22;11238;48.730;11.566;2023-08-12T02:08:38;17.20;99.90
22145;DHT22;11238;48.730;11.566;2023-08-12T02:11:04;17.20;99.90
22145;DHT22;11238;48.730;11.566;2023-08-12T02:13:30;17.10;99.90
22145;DHT22;11238;48.730;11.566;2023-08-12T02:15:56;17.00;99.90
22145;DHT22;11238;48.730;11.566;2023-08-12T02:18:22;17.00;99.90
22145;DHT22;11238;48.730;11.566;2023-08-12T02:20:48;17.00;99.90
22145;DHT22;11238;48.730;11.566;2023-08-12T02:23:14;17.00;99.90
22145;DHT22;11238;48.730;11.566;2023-08-12T02:25:40;17.10;99.90
22145;DHT22;11238;48.730;11.566;2023-08-12T02:28:06;17.10;99.90
22145;DHT22;11238;48.730;11.566;2023-08-12T02:30:32;17.10;99.90
22145;DHT22;11238;48.730;11.566;2023-08-12T02:32:59;17.10;99.90
22145;DHT22;11238;48.730;11.566;2023-08-12T02:35:24;17.00;99.90
22145;DHT22;11238;48.730;11.566;2023-08-12T02:37:50;17.00;99.90
22145;DHT22;11238;48.730;11.566;2023-08-12T02:40:17;17.00;99.90
22145;DHT22;11238;48.730;11.566;2023-08-12T02:42:43;16.90;99.90
22145;DHT22;11238;48.730;11.566;2023-08-12T02:45:09;16.90;99.90
22145;DHT22;11238;48.730;11.566;2023-08-12T02:47:35;16.90;99.90
22145;DHT22;11238;48.730;11.566;2023-08-12T02:50:00;16.80;99.90
22145;DHT22;11238;48.730;11.566;2023-08-12T02:52:26;16.70;99.90
22145;DHT22;11238;48.730;11.566;2023-08-12T02:54:52;16.60;99.90
22145;DHT22;11238;48.730;11.566;2023-08-12T02:57:20;16.60;99.90
22145;DHT22;11238;48.730;11.566;2023-08-12T02:59:45;16.60;99.90
22145;DHT22;11238;48.730;11.566;2023-08-12T03:02:11;16.50;99.90
22145;DHT22;11238;48.730;11.566;2023-08-12T03:04:37;16.50;99.90
22145;DHT22;11238;48.730;11.566;2023-08-12T03:07:03;16.50;99.90
22145;DHT22;11238;48.730;11.566;2023-08-12T03:09:29;16.50;99.90
22145;DHT22;11238;48.730;11.566;2023-08-12T03:11:55;16.50;99.90
22145;DHT22;11238;48.730;11.566;2023-08-12T03:14:22;16.50;99.90
22145;DHT22;11238;48.730;11.566;2023-08-12T03:16:48;16.50;99.90
22145;DHT22;11238;48.730;11.566;2023-08-12T03:19:14;16.60;99.90
22145;DHT22;11238;48.730;11.566;2023-08-12T03:21:40;16.50;99.90
22145;DHT22;11238;48.730;11.566;2023-08-12T03:24:06;16.40;99.90
22145;DHT22;11238;48.730;11.566;2023-08-12T03:26:32;16.30;99.90
22145;DHT22;11238;48.730;11.566;2023-08-12T03:28:58;16.30;99.90
22145;DHT22;11238;48.730;11.566;2023-08-12T03:31:25;16.20;99.90
22145;DHT22;11238;48.730;11.566;2023-08-12T03:33:52;16.20;99.90
22145;DHT22;11238;48.730;11.566;2023-08-12T03:36:18;16.30;99.90
22145;DHT22;11238;48.730;11.566;2023-08-12T03:38:45;16.30;99.90
22145;DHT22;11238;48.730;11.566;2023-08-12T03:41:15;16.30;99.90
22145;DHT22;11238;48.730;11.566;2023-08-12T03:43:42;16.30;99.90
22145;DHT22;11238;48.730;11.566;2023-08-12T03:46:08;16.30;99.90
22145;DHT22;11238;48.730;11.566;2023-08-12T03:48:35;16.10;99.90
22145;DHT22;11238;48.730;11.566;2023-08-12T03:51:00;16.20;99.90
22145;DHT22;11238;48.730;11.566;2023-08-12T03:53:26;16.10;99.90
22145;DHT22;11238;48.730;11.566;2023-08-12T03:55:53;16.10;99.90
22145;DHT22;11238;48.730;11.566;2023-08-12T03:58:19;16.00;99.90
22145;DHT22;11238;48.730;11.566;2023-08-12T04:00:46;16.00;99.90
22145;DHT22;11238;48.730;11.566;2023-08-12T04:03:14;16.00;99.90
22145;DHT22;11238;48.730;11.566;2023-08-12T04:05:50;16.00;99.90
22145;DHT22;11238;48.730;11.566;2023-08-12T04:08:19;16.00;99.90
22145;DHT22;11238;48.730;11.566;2023-08-12T04:10:46;16.00;99.90
22145;DHT22;11238;48.730;11.566;2023-08-12T04:13:14;16.10;99.90
22145;DHT22;11238;48.730;11.566;2023-08-12T04:15:40;16.10;99.90
22145;DHT22;11238;48.730;11.566;2023-08-12T04:18:07;16.10;99.90
22145;DHT22;11238;48.730;11.566;2023-08-12T04:20:33;16.10;99.90
22145;DHT22;11238;48.730;11.566;2023-08-12T04:22:59;16.10;99.90
22145;DHT22;11238;48.730;11.566;2023-08-12T04:25:25;16.10;99.90
22145;DHT22;11238;48.730;11.566;2023-08-12T04:27:51;16.10;99.90
22145;DHT22;11238;48.730;11.566;2023-08-12T04:30:18;16.10;99.90
22145;DHT22;11238;48.730;11.566;2023-08-12T04:32:45;16.20;99.90
22145;DHT22;11238;48.730;11.566;2023-08-12T04:35:11;16.10;99.90
22145;DHT22;11238;48.730;11.566;2023-08-12T04:37:38;16.10;99.90
22145;DHT22;11238;48.730;11.566;2023-08-12T04:40:08;16.10;99.90
22145;DHT22;11238;48.730;11.566;2023-08-12T04:42:34;16.00;99.90
22145;DHT22;11238;48.730;11.566;2023-08-12T04:45:00;16.00;99.90
22145;DHT22;11238;48.730;11.566;2023-08-12T04:47:29;16.10;99.90
22145;DHT22;11238;48.730;11.566;2023-08-12T04:49:55;16.10;99.90
22145;DHT22;11238;48.730;11.566;2023-08-12T04:52:21;16.10;99.90
22145;DHT22;11238;48.730;11.566;2023-08-12T04:54:48;16.00;99.90
22145;DHT22;11238;48.730;11.566;2023-08-12T04:57:15;16.10;99.90
22145;DHT22;11238;48.730;11.566;2023-08-12T04:59:40;16.10;99.90
22145;DHT22;11238;48.730;11.566;2023-08-12T05:02:06;16.20;99.90
22145;DHT22;11238;48.730;11.566;2023-08-12T05:04:33;16.20;99.90
22145;DHT22;11238;48.730;11.566;2023-08-12T05:06:59;16.20;99.90
22145;DHT22;11238;48.730;11.566;2023-08-12T05:09:25;16.30;99.90
22145;DHT22;11238;48.730;11.566;2023-08-12T05:11:51;16.30;99.90
22145;DHT22;11238;48.730;11.566;2023-08-12T05:14:17;16.30;99.90
22145;DHT22;11238;48.730;11.566;2023-08-12T05:16:43;16.40;99.90
22145;DHT22;11238;48.730;11.566;2023-08-12T05:19:09;16.40;99.90
22145;DHT22;11238;48.730;11.566;2023-08-12T05:21:35;16.50;99.90
22145;DHT22;11238;48.730;11.566;2023-08-12T05:24:04;16.70;99.90
22145;DHT22;11238;48.730;11.566;2023-08-12T05:26:32;16.90;99.90
22145;DHT22;11238;48.730;11.566;2023-08-12T05:28:57;17.00;99.90
22145;DHT22;11238;48.730;11.566;2023-08-12T05:31:23;17.10;99.90
22145;DHT22;11238;48.730;11.566;2023-08-12T05:33:49;17.20;99.90
22145;DHT22;11238;48.730;11.566;2023-08-12T05:36:15;17.40;99.90
22145;DHT22;11238;48.730;11.566;2023-08-12T05:38:40;17.60;99.90
22145;DHT22;11238;48.730;11.566;2023-08-12T05:41:06;17.80;99.90
22145;DHT22;11238;48.730;11.566;2023-08-12T05:43:33;17.90;99.90
22145;DHT22;11238;48.730;11.566;2023-08-12T05:45:58;18.10;99.90
22145;DHT22;11238;48.730;11.566;2023-08-12T05:48:25;18.10;99.90
22145;DHT22;11238;48.730;11.566;2023-08-12T05:50:51;18.20;99.90
22145;DHT22;11238;48.730;11.566;2023-08-12T05:53:16;18.10;99.90
22145;DHT22;11238;48.730;11.566;2023-08-12T05:55:42;18.10;99.90
22145;DHT22;11238;48.730;11.566;2023-08-12T05:58:08;18.10;99.90
22145;DHT22;11238;48.730;11.566;2023-08-12T06:00:34;18.20;99.90
22145;DHT22;11238;48.730;11.566;2023-08-12T06:03:00;18.20;99.90
22145;DHT22;11238;48.730;11.566;2023-08-12T06:05:25;18.20;99.90
22145;DHT22;11238;48.730;11.566;2023-08-12T06:07:51;18.20;99.90
22145;DHT22;11238;48.730;11.566;2023-08-12T06:10:17;18.20;99.90
22145;DHT22;11238;48.730;11.566;2023-08-12T06:12:43;18.30;99.90
22145;DHT22;11238;48.730;11.566;2023-08-12T06:15:09;18.30;99.90
22145;DHT22;11238;48.730;11.566;2023-08-12T06:17:35;18.40;99.90
22145;DHT22;11238;48.730;11.566;2023-08-12T06:20:01;18.50;99.90
22145;DHT22;11238;48.730;11.566;2023-08-12T06:22:28;18.50;99.90
22145;DHT22;11238;48.730;11.566;2023-08-12T06:24:53;18.60;99.90
22145;DHT22;11238;48.730;11.566;2023-08-12T06:27:19;18.60;99.90
22145;DHT22;11238;48.730;11.566;2023-08-12T06:29:49;18.70;99.90
22145;DHT22;11238;48.730;11.566;2023-08-12T06:32:15;18.80;99.90
22145;DHT22;11238;48.730;11.566;2023-08-12T06:34:41;18.90;99.90
22145;DHT22;11238;48.730;11.566;2023-08-12T06:37:07;19.10;99.90
22145;DHT22;11238;48.730;11.566;2023-08-12T06:39:32;19.20;99.90
22145;DHT22;11238;48.730;11.566;2023-08-12T06:41:58;19.20;99.90
22145;DHT22;11238;48.730;11.566;2023-08-12T06:44:24;19.20;99.90
22145;DHT22;11238;48.730;11.566;2023-08-12T06:46:50;19.20;99.90
22145;DHT22;11238;48.730;11.566;2023-08-12T06:49:16;19.20;99.90
22145;DHT22;11238;48.730;11.566;2023-08-12T06:51:42;19.20;99.90
22145;DHT22;11238;48.730;11.566;2023-08-12T06:54:07;19.20;99.90
22145;DHT22;11238;48.730;11.566;2023-08-12T06:56:33;19.30;99.90
22145;DHT22;11238;48.730;11.566;2023-08-12T06:58:59;19.30;99.90
22145;DHT22;11238;48.730;11.566;2023-08-12T07:01:47;19.40;99.90
22145;DHT22;11238;48.730;11.566;2023-08-12T07:04:26;19.50;99.90
22145;DHT22;11238;48.730;11.566;2023-08-12T07:06:52;19.60;99.90
22145;DHT22;11238;48.730;11.566;2023-08-12T07:09:18;19.70;99.90
22145;DHT22;11238;48.730;11.566;2023-08-12T07:11:44;19.70;99.90
22145;DHT22;11238;48.730;11.566;2023-08-12T07:14:10;19.80;99.90
22145;DHT22;11238;48.730;11.566;2023-08-12T07:16:36;19.80;99.90
22145;DHT22;11238;48.730;11.566;2023-08-12T07:19:01;19.90;99.90
22145;DHT22;11238;48.730;11.566;2023-08-12T07:21:27;20.10;99.90
22145;DHT22;11238;48.730;11.566;2023-08-12T07:23:53;20.20;99.90
22145;DHT22;11238;48.730;11.566;2023-08-12T07:26:18;20.30;99.90
22145;DHT22;11238;48.730;11.566;2023-08-12T07:28:44;20.50;99.90
22145;DHT22;11238;48.730;11.566;2023-08-12T07:31:10;20.60;99.90
22145;DHT22;11238;48.730;11.566;2023-08-12T07:33:36;20.70;99.90
22145;DHT22;11238;48.730;11.566;2023-08-12T07:36:02;20.90;99.90
22145;DHT22;11238;48.730;11.566;2023-08-12T07:38:28;21.00;99.90
22145;DHT22;11238;48.730;11.566;2023-08-12T07:40:54;21.10;99.90
22145;DHT22;11238;48.730;11.566;2023-08-12T07:43:20;21.20;99.90
22145;DHT22;11238;48.730;11.566;2023-08-12T07:45:50;21.30;99.90
22145;DHT22;11238;48.730;11.566;2023-08-12T07:48:16;21.40;99.90
22145;DHT22;11238;48.730;11.566;2023-08-12T07:50:42;21.60;99.90
22145;DHT22;11238;48.730;11.566;2023-08-12T07:53:08;21.70;99.90
22145;DHT22;11238;48.730;11.566;2023-08-12T07:55:34;21.80;99.90
22145;DHT22;11238;48.730;11.566;2023-08-12T07:58:00;21.90;99.90
22145;DHT22;11238;48.730;11.566;2023-08-12T08:00:26;22.00;99.90
22145;DHT22;11238;48.730;11.566;2023-08-12T08:02:52;22.00;99.90
22145;DHT22;11238;48.730;11.566;2023-08-12T08:05:18;22.00;99.90
22145;DHT22;11238;48.730;11.566;2023-08-12T08:07:44;22.10;99.90
22145;DHT22;11238;48.730;11.566;2023-08-12T08:10:10;22.10;99.90
22145;DHT22;11238;48.730;11.566;2023-08-12T08:12:36;22.20;99.90
22145;DHT22;11238;48.730;11.566;2023-08-12T08:15:02;22.30;99.90
22145;DHT22;11238;48.730;11.566;2023-08-12T08:17:29;22.50;99.90
22145;DHT22;11238;48.730;11.566;2023-08-12T08:19:55;22.80;99.90
22145;DHT22;11238;48.730;11.566;2023-08-12T08:22:21;22.80;99.90
22145;DHT22;11238;48.730;11.566;2023-08-12T08:24:47;23.00;99.90
22145;DHT22;11238;48.730;11.566;2023-08-12T08:27:13;23.00;99.90
22145;DHT22;11238;48.730;11.566;2023-08-12T08:29:40;23.00;99.90
22145;DHT22;11238;48.730;11.566;2023-08-12T08:32:06;23.10;99.90
22145;DHT22;11238;48.730;11.566;2023-08-12T08:34:32;23.00;99.90
22145;DHT22;11238;48.730;11.566;2023-08-12T08:36:58;23.00;99.90
22145;DHT22;11238;48.730;11.566;2023-08-12T08:39:23;23.10;99.90
22145;DHT22;11238;48.730;11.566;2023-08-12T08:41:49;23.00;99.90
22145;DHT22;11238;48.730;11.566;2023-08-12T08:44:17;23.00;99.90
22145;DHT22;11238;48.730;11.566;2023-08-12T08:46:45;23.00;99.90
22145;DHT22;11238;48.730;11.566;2023-08-12T08:49:12;23.00;99.90
22145;DHT22;11238;48.730;11.566;2023-08-12T08:51:41;23.00;99.90
22145;DHT22;11238;48.730;11.566;2023-08-12T08:54:08;23.00;99.90
22145;DHT22;11238;48.730;11.566;2023-08-12T08:56:35;23.10;99.90
22145;DHT22;11238;48.730;11.566;2023-08-12T08:59:02;23.10;99.90
22145;DHT22;11238;48.730;11.566;2023-08-12T09:01:29;23.20;99.90
22145;DHT22;11238;48.730;11.566;2023-08-12T09:03:55;23.30;99.90
22145;DHT22;11238;48.730;11.566;2023-08-12T09:06:25;23.30;99.90
22145;DHT22;11238;48.730;11.566;2023-08-12T09:08:51;23.40;99.90
22145;DHT22;11238;48.730;11.566;2023-08-12T09:11:21;23.40;99.90
22145;DHT22;11238;48.730;11.566;2023-08-12T09:13:48;23.60;99.90
22145;DHT22;11238;48.730;11.566;2023-08-12T09:16:15;23.70;99.90
22145;DHT22;11238;48.730;11.566;2023-08-12T09:18:44;23.80;99.90
22145;DHT22;11238;48.730;11.566;2023-08-12T09:21:10;23.90;99.90
22145;DHT22;11238;48.730;11.566;2023-08-12T09:23:40;23.90;99.90
22145;DHT22;11238;48.730;11.566;2023-08-12T09:26:17;24.00;99.90
22145;DHT22;11238;48.730;11.566;2023-08-12T09:28:44;24.10;99.90
22145;DHT22;11238;48.730;11.566;2023-08-12T09:31:29;24.30;99.90
22145;DHT22;11238;48.730;11.566;2023-08-12T09:34:03;24.40;99.90
22145;DHT22;11238;48.730;11.566;2023-08-12T09:36:29;24.50;99.90
22145;DHT22;11238;48.730;11.566;2023-08-12T09:38:56;24.60;99.90
22145;DHT22;11238;48.730;11.566;2023-08-12T09:41:26;24.70;99.90
22145;DHT22;11238;48.730;11.566;2023-08-12T09:43:52;24.70;99.90
22145;DHT22;11238;48.730;11.566;2023-08-12T09:46:21;24.70;99.90
22145;DHT22;11238;48.730;11.566;2023-08-12T09:48:51;24.80;99.90
22145;DHT22;11238;48.730;11.566;2023-08-12T09:51:18;24.90;99.90
22145;DHT22;11238;48.730;11.566;2023-08-12T09:53:48;25.10;99.90
22145;DHT22;11238;48.730;11.566;2023-08-12T09:56:18;25.30;99.90
22145;DHT22;11238;48.730;11.566;2023-08-12T09:58:44;25.30;99.90
22145;DHT22;11238;48.730;11.566;2023-08-12T10:01:12;25.30;99.90
22145;DHT22;11238;48.730;11.566;2023-08-12T10:03:40;25.40;99.90
22145;DHT22;11238;48.730;11.566;2023-08-12T10:06:07;25.30;99.90
22145;DHT22;11238;48.730;11.566;2023-08-12T10:08:35;25.70;99.90
22145;DHT22;11238;48.730;11.566;2023-08-12T10:11:02;26.00;99.90
22145;DHT22;11238;48.730;11.566;2023-08-12T10:13:28;26.20;99.90
22145;DHT22;11238;48.730;11.566;2023-08-12T10:15:55;26.40;99.90
22145;DHT22;11238;48.730;11.566;2023-08-12T10:18:22;26.40;99.90
22145;DHT22;11238;48.730;11.566;2023-08-12T10:20:50;26.40;99.90
22145;DHT22;11238;48.730;11.566;2023-08-12T10:23:17;26.40;99.90
22145;DHT22;11238;48.730;11.566;2023-08-12T10:25:44;26.30;99.90
22145;DHT22;11238;48.730;11.566;2023-08-12T10:28:11;26.30;99.90
22145;DHT22;11238;48.730;11.566;2023-08-12T10:30:40;26.30;99.90
22145;DHT22;11238;48.730;11.566;2023-08-12T10:33:08;26.60;99.90
22145;DHT22;11238;48.730;11.566;2023-08-12T10:35:44;26.80;99.90
22145;DHT22;11238;48.730;11.566;2023-08-12T10:38:13;27.00;99.90
22145;DHT22;11238;48.730;11.566;2023-08-12T10:40:38;27.00;99.90
22145;DHT22;11238;48.730;11.566;2023-08-12T10:43:05;27.00;99.90
22145;DHT22;11238;48.730;11.566;2023-08-12T10:45:52;27.20;99.90
22145;DHT22;11238;48.730;11.566;2023-08-12T10:48:23;27.30;99.80
22145;DHT22;11238;48.730;11.566;2023-08-12T10:50:58;27.50;99.90
22145;DHT22;11238;48.730;11.566;2023-08-12T10:53:29;27.70;99.90
22145;DHT22;11238;48.730;11.566;2023-08-12T10:56:01;27.80;99.20
22145;DHT22;11238;48.730;11.566;2023-08-12T10:58:34;27.90;98.30
22145;DHT22;11238;48.730;11.566;2023-08-12T11:01:00;28.10;98.40
22145;DHT22;11238;48.730;11.566;2023-08-12T11:03:25;28.10;96.50
22145;DHT22;11238;48.730;11.566;2023-08-12T11:05:53;28.20;96.60
22145;DHT22;11238;48.730;11.566;2023-08-12T11:08:25;28.30;96.60
22145;DHT22;11238;48.730;11.566;2023-08-12T11:10:54;28.50;97.10
22145;DHT22;11238;48.730;11.566;2023-08-12T11:13:19;28.70;95.70
22145;DHT22;11238;48.730;11.566;2023-08-12T11:15:47;28.90;96.90
22145;DHT22;11238;48.730;11.566;2023-08-12T11:18:15;28.80;93.20
22145;DHT22;11238;48.730;11.566;2023-08-12T11:20:45;29.10;92.40
22145;DHT22;11238;48.730;11.566;2023-08-12T11:23:12;29.10;91.60
22145;DHT22;11238;48.730;11.566;2023-08-12T11:26:00;29.30;92.50
22145;DHT22;11238;48.730;11.566;2023-08-12T11:28:27;29.50;92.40
22145;DHT22;11238;48.730;11.566;2023-08-12T11:30:53;29.70;93.20
22145;DHT22;11238;48.730;11.566;2023-08-12T11:33:19;29.00;89.60
22145;DHT22;11238;48.730;11.566;2023-08-12T11:35:46;29.20;91.40
22145;DHT22;11238;48.730;11.566;2023-08-12T11:38:12;29.30;90.00
22145;DHT22;11238;48.730;11.566;2023-08-12T11:40:38;29.60;89.60
22145;DHT22;11238;48.730;11.566;2023-08-12T11:43:05;30.00;90.50
22145;DHT22;11238;48.730;11.566;2023-08-12T11:45:55;30.20;91.00
22145;DHT22;11238;48.730;11.566;2023-08-12T11:48:21;30.20;90.90
22145;DHT22;11238;48.730;11.566;2023-08-12T11:50:48;29.70;88.40
22145;DHT22;11238;48.730;11.566;2023-08-12T11:53:15;30.10;90.70
22145;DHT22;11238;48.730;11.566;2023-08-12T11:55:41;30.20;88.30
22145;DHT22;11238;48.730;11.566;2023-08-12T11:58:07;30.50;88.00
22145;DHT22;11238;48.730;11.566;2023-08-12T12:00:33;30.50;85.40
22145;DHT22;11238;48.730;11.566;2023-08-12T12:02:59;30.80;87.90
22145;DHT22;11238;48.730;11.566;2023-08-12T12:05:29;30.90;84.80
22145;DHT22;11238;48.730;11.566;2023-08-12T12:08:00;30.50;83.60
22145;DHT22;11238;48.730;11.566;2023-08-12T12:10:31;30.70;83.60
22145;DHT22;11238;48.730;11.566;2023-08-12T12:12:59;30.90;83.70
22145;DHT22;11238;48.730;11.566;2023-08-12T12:15:24;31.20;84.60
22145;DHT22;11238;48.730;11.566;2023-08-12T12:17:51;30.70;84.00
22145;DHT22;11238;48.730;11.566;2023-08-12T12:20:18;30.80;81.10
22145;DHT22;11238;48.730;11.566;2023-08-12T12:22:45;30.40;79.70
22145;DHT22;11238;48.730;11.566;2023-08-12T12:25:15;30.80;81.80
22145;DHT22;11238;48.730;11.566;2023-08-12T12:27:43;31.00;81.50
22145;DHT22;11238;48.730;11.566;2023-08-12T12:30:12;31.10;81.70
22145;DHT22;11238;48.730;11.566;2023-08-12T12:32:38;31.10;79.30
22145;DHT22;11238;48.730;11.566;2023-08-12T12:35:04;31.50;79.00
22145;DHT22;11238;48.730;11.566;2023-08-12T12:37:33;32.10;80.90
22145;DHT22;11238;48.730;11.566;2023-08-12T12:39:59;32.20;79.00
22145;DHT22;11238;48.730;11.566;2023-08-12T12:42:25;31.60;74.60
22145;DHT22;11238;48.730;11.566;2023-08-12T12:44:50;31.40;76.60
22145;DHT22;11238;48.730;11.566;2023-08-12T12:47:16;31.40;75.60
22145;DHT22;11238;48.730;11.566;2023-08-12T12:49:42;31.50;76.70
22145;DHT22;11238;48.730;11.566;2023-08-12T12:52:08;31.70;75.90
22145;DHT22;11238;48.730;11.566;2023-08-12T12:54:34;31.90;78.10
22145;DHT22;11238;48.730;11.566;2023-08-12T12:57:00;32.00;77.60
22145;DHT22;11238;48.730;11.566;2023-08-12T12:59:27;32.20;75.70
22145;DHT22;11238;48.730;11.566;2023-08-12T13:01:53;32.40;75.60
22145;DHT22;11238;48.730;11.566;2023-08-12T13:04:19;32.80;73.30
22145;DHT22;11238;48.730;11.566;2023-08-12T13:06:45;32.80;69.10
22145;DHT22;11238;48.730;11.566;2023-08-12T13:09:10;33.20;74.50
22145;DHT22;11238;48.730;11.566;2023-08-12T13:11:36;33.40;73.10
22145;DHT22;11238;48.730;11.566;2023-08-12T13:14:02;33.30;64.40
22145;DHT22;11238;48.730;11.566;2023-08-12T13:16:29;33.50;67.10
22145;DHT22;11238;48.730;11.566;2023-08-12T13:18:56;33.80;67.00
22145;DHT22;11238;48.730;11.566;2023-08-12T13:21:24;33.80;64.90
22145;DHT22;11238;48.730;11.566;2023-08-12T13:23:50;33.80;64.10
22145;DHT22;11238;48.730;11.566;2023-08-12T13:26:17;33.50;65.60
22145;DHT22;11238;48.730;11.566;2023-08-12T13:28:43;33.80;68.60
22145;DHT22;11238;48.730;11.566;2023-08-12T13:31:09;33.90;69.30
22145;DHT22;11238;48.730;11.566;2023-08-12T13:33:35;33.90;67.10
22145;DHT22;11238;48.730;11.566;2023-08-12T13:36:00;34.00;65.20
22145;DHT22;11238;48.730;11.566;2023-08-12T13:38:26;34.00;66.60
22145;DHT22;11238;48.730;11.566;2023-08-12T13:40:52;33.70;63.10
22145;DHT22;11238;48.730;11.566;2023-08-12T13:43:18;34.00;65.00
22145;DHT22;11238;48.730;11.566;2023-08-12T13:45:46;34.10;65.20
22145;DHT22;11238;48.730;11.566;2023-08-12T13:48:12;34.00;63.10
22145;DHT22;11238;48.730;11.566;2023-08-12T13:50:38;34.10;62.40
22145;DHT22;11238;48.730;11.566;2023-08-12T13:53:03;34.10;62.90
22145;DHT22;11238;48.730;11.566;2023-08-12T13:55:30;34.30;60.80
22145;DHT22;11238;48.730;11.566;2023-08-12T13:57:55;34.30;61.50
22145;DHT22;11238;48.730;11.566;2023-08-12T14:00:21;33.90;61.60
22145;DHT22;11238;48.730;11.566;2023-08-12T14:02:47;33.60;65.20
22145;DHT22;11238;48.730;11.566;2023-08-12T14:05:14;33.50;65.10
22145;DHT22;11238;48.730;11.566;2023-08-12T14:07:40;33.40;63.90
22145;DHT22;11238;48.730;11.566;2023-08-12T14:10:07;33.10;62.70
22145;DHT22;11238;48.730;11.566;2023-08-12T14:12:33;32.90;65.90
22145;DHT22;11238;48.730;11.566;2023-08-12T14:14:59;32.80;65.70
22145;DHT22;11238;48.730;11.566;2023-08-12T14:17:25;32.80;64.40
22145;DHT22;11238;48.730;11.566;2023-08-12T14:19:51;32.70;65.10
22145;DHT22;11238;48.730;11.566;2023-08-12T14:22:19;32.60;64.20
22145;DHT22;11238;48.730;11.566;2023-08-12T14:24:46;32.40;64.30
22145;DHT22;11238;48.730;11.566;2023-08-12T14:27:15;32.30;66.60
22145;DHT22;11238;48.730;11.566;2023-08-12T14:29:41;32.10;64.10
22145;DHT22;11238;48.730;11.566;2023-08-12T14:32:07;31.90;64.80
22145;DHT22;11238;48.730;11.566;2023-08-12T14:34:33;31.70;66.30
22145;DHT22;11238;48.730;11.566;2023-08-12T14:36:59;31.50;66.20
22145;DHT22;11238;48.730;11.566;2023-08-12T14:39:26;31.40;67.80
22145;DHT22;11238;48.730;11.566;2023-08-12T14:41:52;31.20;69.90
22145;DHT22;11238;48.730;11.566;2023-08-12T14:44:18;31.20;69.70
22145;DHT22;11238;48.730;11.566;2023-08-12T14:46:44;31.10;69.90
22145;DHT22;11238;48.730;11.566;2023-08-12T14:49:09;31.10;71.00
22145;DHT22;11238;48.730;11.566;2023-08-12T14:51:35;31.00;70.70
22145;DHT22;11238;48.730;11.566;2023-08-12T14:54:01;31.00;70.60
22145;DHT22;11238;48.730;11.566;2023-08-12T14:56:28;31.20;72.60
22145;DHT22;11238;48.730;11.566;2023-08-12T14:58:57;31.40;71.20
22145;DHT22;11238;48.730;11.566;2023-08-12T15:01:22;31.30;71.30
22145;DHT22;11238;48.730;11.566;2023-08-12T15:03:50;31.30;69.60
22145;DHT22;11238;48.730;11.566;2023-08-12T15:06:17;31.20;70.00
22145;DHT22;11238;48.730;11.566;2023-08-12T15:08:42;31.00;70.00
22145;DHT22;11238;48.730;11.566;2023-08-12T15:11:09;30.80;68.40
22145;DHT22;11238;48.730;11.566;2023-08-12T15:13:34;30.60;68.00
22145;DHT22;11238;48.730;11.566;2023-08-12T15:16:00;30.40;70.30